Time;durP1;ratioP1;P1;durP2;ratioP2;P2;SDS_P1;SDS_P2;PMS_P1;PMS_P2;Temp;Humidity;BMP_temperature;BMP_pressure;BME280_temperature;BME280_humidity;BME280_pressure;Samples;Min_cycle;Max_cycle;Signal;HPM_P1;HPM_P2
2022/06/06 00:01:10;;;;;;;10.73;9.40;;;15.20;99.90;;;;;;4808264;29;20102;-66
2022/06/06 00:03:36;;;;;;;11.55;9.75;;;15.10;99.90;;;;;;4792046;29;20051;-65
2022/06/06 00:06:06;;;;;;;12.23;10.02;;;15.10;99.90;;;;;;4807008;29;20797;-64
2022/06/06 00:08:32;;;;;;;10.27;8.80;;;15.10;99.90;;;;;;4791663;29;20055;-65
2022/06/06 00:10:57;;;;;;;9.82;8.75;;;15.00;99.90;;;;;;4793075;29;20047;-65
2022/06/06 00:13:23;;;;;;;9.30;8.00;;;15.00;99.90;;;;;;4808254;29;20050;-66
2022/06/06 00:15:49;;;;;;;10.23;8.32;;;14.80;99.90;;;;;;4808370;29;20485;-65
2022/06/06 00:18:14;;;;;;;9.65;8.65;;;15.00;99.90;;;;;;4807870;29;20055;-64
2022/06/06 00:20:40;;;;;;;10.80;7.97;;;15.00;99.90;;;;;;4792009;29;20543;-65
2022/06/06 00:23:05;;;;;;;9.27;8.27;;;15.00;99.90;;;;;;4790929;29;20389;-66
2022/06/06 00:25:31;;;;;;;8.27;7.30;;;15.00;99.90;;;;;;4792610;29;20138;-67
2022/06/06 00:27:57;;;;;;;8.52;7.60;;;15.00;99.90;;;;;;4791846;29;20051;-66
2022/06/06 00:30:23;;;;;;;9.60;7.50;;;15.00;99.90;;;;;;4807047;29;20055;-67
2022/06/06 00:35:32;;;;;;;7.53;6.70;;;14.90;99.90;;;;;;4789506;29;20051;-65
2022/06/06 00:37:59;;;;;;;8.07;7.00;;;14.90;99.90;;;;;;4791993;29;20137;-65
2022/06/06 00:40:26;;;;;;;7.50;6.55;;;14.90;99.90;;;;;;4790340;29;20043;-68
2022/06/06 00:42:52;;;;;;;7.63;6.25;;;14.90;99.90;;;;;;4792083;29;20054;-67
2022/06/06 00:45:26;;;;;;;9.02;6.10;;;14.90;99.90;;;;;;4806593;29;20434;-66
2022/06/06 00:48:14;;;;;;;9.98;6.10;;;14.80;99.90;;;;;;4805817;29;20094;-68
2022/06/06 00:50:52;;;;;;;7.75;6.05;;;14.80;99.90;;;;;;4808278;29;20108;-65
2022/06/06 00:53:29;;;;;;;7.43;6.28;;;14.80;99.90;;;;;;4805086;29;20054;-66
2022/06/06 00:55:59;;;;;;;6.68;5.72;;;14.70;99.90;;;;;;4807065;29;20051;-64
2022/06/06 00:58:27;;;;;;;6.68;5.82;;;14.80;99.90;;;;;;4808058;29;20104;-66
2022/06/06 01:00:53;;;;;;;6.82;6.13;;;14.70;99.90;;;;;;4806565;29;20058;-66
2022/06/06 01:03:23;;;;;;;7.47;6.38;;;14.70;99.90;;;;;;4791513;29;20051;-65
2022/06/06 01:05:50;;;;;;;7.80;6.38;;;14.80;99.90;;;;;;4805674;29;20567;-65
2022/06/06 01:08:18;;;;;;;8.13;5.97;;;14.80;99.90;;;;;;4807785;29;20055;-64
2022/06/06 01:10:44;;;;;;;7.30;6.50;;;14.70;99.90;;;;;;4807455;29;20063;-65
2022/06/06 01:13:13;;;;;;;7.72;6.70;;;14.70;99.90;;;;;;4790687;29;20057;-64
2022/06/06 01:16:07;;;;;;;7.57;5.90;;;14.70;99.90;;;;;;4808260;29;20445;-66
2022/06/06 01:18:51;;;;;;;7.45;6.65;;;14.70;99.90;;;;;;4785693;29;20093;-67
2022/06/06 01:21:26;;;;;;;8.15;6.50;;;14.60;99.90;;;;;;4805936;29;20065;-67
2022/06/06 01:24:06;;;;;;;7.60;6.78;;;14.60;99.90;;;;;;4806364;29;20127;-66
2022/06/06 01:27:06;;;;;;;8.75;7.55;;;14.60;99.90;;;;;;4807592;29;20396;-67
2022/06/06 01:29:37;;;;;;;7.95;6.75;;;14.60;99.90;;;;;;4790802;29;20507;-68
2022/06/06 01:32:08;;;;;;;8.95;6.50;;;14.60;99.90;;;;;;4807239;29;20095;-66
2022/06/06 01:34:37;;;;;;;8.63;6.97;;;14.60;99.90;;;;;;4806407;29;20050;-64
2022/06/06 01:37:04;;;;;;;8.13;6.53;;;14.50;99.90;;;;;;4807669;29;20439;-66
2022/06/06 01:39:31;;;;;;;7.70;6.55;;;14.50;99.90;;;;;;4807469;29;20416;-66
2022/06/06 01:42:18;;;;;;;7.05;6.30;;;14.50;99.90;;;;;;4790429;29;20046;-65
2022/06/06 01:45:02;;;;;;;8.40;6.72;;;14.50;99.90;;;;;;4807295;29;20054;-67
2022/06/06 01:47:36;;;;;;;9.50;7.07;;;14.50;99.90;;;;;;4806841;29;20050;-65
2022/06/06 01:50:04;;;;;;;8.18;6.97;;;14.40;99.90;;;;;;4806325;29;20059;-66
2022/06/06 01:52:29;;;;;;;7.70;6.90;;;14.40;99.90;;;;;;4804002;29;20043;-66
2022/06/06 01:54:57;;;;;;;9.48;7.20;;;14.40;99.90;;;;;;4788496;29;20139;-66
2022/06/06 01:57:24;;;;;;;8.65;6.95;;;14.40;99.90;;;;;;4805931;29;20500;-66
2022/06/06 01:59:52;;;;;;;7.43;6.25;;;14.40;99.90;;;;;;4791160;29;20107;-67
2022/06/06 02:02:18;;;;;;;8.05;6.75;;;14.40;99.90;;;;;;4806486;29;20059;-67
2022/06/06 02:04:44;;;;;;;8.10;6.53;;;14.30;99.90;;;;;;4806355;29;20129;-67
2022/06/06 02:07:09;;;;;;;7.88;6.80;;;14.40;99.90;;;;;;4790331;29;20135;-66
2022/06/06 02:09:36;;;;;;;6.97;6.07;;;14.40;99.90;;;;;;4788931;29;20050;-67
2022/06/06 02:12:02;;;;;;;7.82;6.05;;;14.40;99.90;;;;;;4790507;29;20402;-67
2022/06/06 02:14:29;;;;;;;6.25;5.63;;;14.40;99.90;;;;;;4806898;29;20099;-68
2022/06/06 02:16:54;;;;;;;7.18;6.20;;;14.40;99.90;;;;;;4789757;29;20055;-67
2022/06/06 02:19:20;;;;;;;7.25;5.75;;;14.40;99.90;;;;;;4791077;29;20046;-66
2022/06/06 02:21:46;;;;;;;6.18;5.47;;;14.40;99.90;;;;;;4804808;29;20055;-68
2022/06/06 02:24:12;;;;;;;9.45;5.93;;;14.30;99.90;;;;;;4804835;29;20074;-67
2022/06/06 02:26:37;;;;;;;8.13;6.05;;;14.40;99.90;;;;;;4790291;29;20392;-65
2022/06/06 02:29:05;;;;;;;6.57;5.80;;;14.30;99.90;;;;;;4807119;29;20051;-67
2022/06/06 02:31:37;;;;;;;5.93;5.35;;;14.30;99.90;;;;;;4789814;29;20047;-66
2022/06/06 02:34:07;;;;;;;7.15;5.25;;;14.30;99.90;;;;;;4790122;29;20488;-65
2022/06/06 02:36:32;;;;;;;6.80;5.53;;;14.40;99.90;;;;;;4774574;29;20465;-67
2022/06/06 02:38:58;;;;;;;5.80;5.15;;;14.30;99.90;;;;;;4790338;29;20047;-67
2022/06/06 02:41:25;;;;;;;6.25;5.65;;;14.40;99.90;;;;;;4804948;29;20096;-67
2022/06/06 02:43:52;;;;;;;8.45;6.63;;;14.40;99.90;;;;;;4806545;29;20051;-67
2022/06/06 02:46:18;;;;;;;9.38;7.97;;;14.40;99.90;;;;;;4789339;29;20058;-67
2022/06/06 02:48:44;;;;;;;9.32;7.60;;;14.40;99.90;;;;;;4805473;29;20034;-66
2022/06/06 02:51:10;;;;;;;10.63;8.52;;;14.40;99.90;;;;;;4803782;29;20122;-66
2022/06/06 02:53:36;;;;;;;10.60;8.52;;;14.40;99.90;;;;;;4805045;29;20129;-66
2022/06/06 02:56:03;;;;;;;11.20;9.75;;;14.40;99.90;;;;;;4805902;29;20058;-66
2022/06/06 02:58:29;;;;;;;11.75;10.05;;;14.40;99.90;;;;;;4789742;29;20054;-67
2022/06/06 03:01:08;;;;;;;12.82;11.40;;;14.30;99.90;;;;;;4804660;29;20260;-67
2022/06/06 03:03:34;;;;;;;14.88;11.88;;;14.40;99.90;;;;;;4785087;29;20402;-67
2022/06/06 03:06:34;;;;;;;16.52;12.43;;;14.30;99.90;;;;;;4805325;29;20142;-67
2022/06/06 03:09:12;;;;;;;17.02;13.77;;;14.30;99.90;;;;;;4777673;29;20058;-66
2022/06/06 03:12:04;;;;;;;22.10;15.50;;;14.20;99.90;;;;;;4806145;29;20058;-66
2022/06/06 03:14:58;;;;;;;24.17;16.95;;;14.20;99.90;;;;;;4787735;29;20134;-67
2022/06/06 03:20:51;;;;;;;38.08;21.05;;;14.20;99.90;;;;;;4805568;29;20404;-67
2022/06/06 03:23:41;;;;;;;37.72;21.77;;;14.20;99.90;;;;;;4802896;29;20042;-66
2022/06/06 03:26:32;;;;;;;43.78;23.90;;;14.10;99.90;;;;;;4789807;29;20073;-68
2022/06/06 03:29:13;;;;;;;42.22;22.33;;;14.00;99.90;;;;;;4804949;29;20062;-67
2022/06/06 03:31:38;;;;;;;46.30;24.38;;;14.00;99.90;;;;;;4789248;29;20062;-66
2022/06/06 03:34:22;;;;;;;36.58;22.17;;;14.00;99.90;;;;;;4808893;29;20095;-68
2022/06/06 03:37:37;;;;;;;38.95;21.52;;;14.00;99.90;;;;;;4790507;30;20108;-68
2022/06/06 03:40:17;;;;;;;39.05;21.08;;;13.90;99.90;;;;;;4704226;30;20135;-65
2022/06/06 03:43:00;;;;;;;40.13;21.75;;;13.90;99.90;;;;;;4805728;29;20074;-66
2022/06/06 03:45:41;;;;;;;35.67;21.52;;;13.90;99.90;;;;;;4809490;29;20397;-65
2022/06/06 03:48:10;;;;;;;31.27;17.63;;;13.90;99.90;;;;;;4793123;29;20086;-68
2022/06/06 03:51:27;;;;;;;25.88;14.55;;;13.90;99.90;;;;;;4791811;29;20176;-66
2022/06/06 03:54:14;;;;;;;20.58;13.18;;;13.90;99.90;;;;;;4809005;29;20451;-66
2022/06/06 03:56:40;;;;;;;16.33;10.20;;;13.80;99.90;;;;;;4791506;29;20444;-66
2022/06/06 03:59:08;;;;;;;14.30;8.57;;;13.80;99.90;;;;;;4790828;29;20053;-67
2022/06/06 04:01:37;;;;;;;13.82;7.95;;;13.70;99.90;;;;;;4808721;29;20502;-67
2022/06/06 04:04:04;;;;;;;14.15;7.28;;;13.70;99.90;;;;;;4808760;29;20051;-67
2022/06/06 04:06:32;;;;;;;12.60;7.10;;;13.70;99.90;;;;;;4808813;29;20055;-66
2022/06/06 04:08:58;;;;;;;11.77;7.20;;;13.70;99.90;;;;;;4808506;29;20042;-69
2022/06/06 04:11:29;;;;;;;12.15;6.60;;;13.60;99.90;;;;;;4807404;29;20121;-67
2022/06/06 04:14:18;;;;;;;13.90;7.33;;;13.60;99.90;;;;;;4809100;29;20055;-68
2022/06/06 04:17:00;;;;;;;16.00;6.90;;;13.60;99.90;;;;;;4808563;29;20055;-65
2022/06/06 04:19:47;;;;;;;11.88;7.43;;;13.60;99.90;;;;;;4808600;29;20116;-66
2022/06/06 04:22:26;;;;;;;17.83;8.68;;;13.60;99.90;;;;;;4808007;29;20072;-65
2022/06/06 04:25:20;;;;;;;14.65;8.43;;;13.60;99.90;;;;;;4807851;29;20058;-69
2022/06/06 04:28:43;;;;;;;15.35;8.35;;;13.60;99.90;;;;;;4808608;29;20066;-66
2022/06/06 04:31:41;;;;;;;17.73;10.00;;;13.60;99.90;;;;;;4755147;30;20064;-66
2022/06/06 04:34:15;;;;;;;17.33;9.43;;;13.60;99.90;;;;;;4792486;29;20327;-66
2022/06/06 04:36:59;;;;;;;18.73;9.65;;;13.60;99.90;;;;;;4791138;29;20047;-66
2022/06/06 04:39:48;;;;;;;15.25;9.35;;;13.60;99.90;;;;;;4807544;29;20055;-66
2022/06/06 04:42:22;;;;;;;20.63;10.23;;;13.70;99.90;;;;;;4792024;29;20055;-66
2022/06/06 04:45:05;;;;;;;18.45;10.02;;;13.60;99.90;;;;;;4807752;29;20066;-66
2022/06/06 04:47:41;;;;;;;18.75;10.15;;;13.60;99.90;;;;;;4807598;29;20059;-66
2022/06/06 04:50:14;;;;;;;19.30;10.48;;;13.60;99.90;;;;;;4792103;29;20533;-66
2022/06/06 04:52:45;;;;;;;19.88;11.57;;;13.60;99.90;;;;;;4806390;29;20070;-65
2022/06/06 04:55:11;;;;;;;17.23;10.70;;;13.60;99.90;;;;;;4790835;29;20063;-67
2022/06/06 04:57:42;;;;;;;22.80;11.88;;;13.60;99.90;;;;;;4808253;29;20043;-66
2022/06/06 05:00:08;;;;;;;20.90;12.23;;;13.60;99.90;;;;;;4808338;29;20055;-67
2022/06/06 05:02:35;;;;;;;21.73;12.15;;;13.60;99.90;;;;;;4790170;29;20061;-67
2022/06/06 05:05:01;;;;;;;20.45;12.30;;;13.60;99.90;;;;;;4805049;29;20050;-65
2022/06/06 05:07:48;;;;;;;21.55;12.05;;;13.60;99.90;;;;;;4790623;29;20452;-67
2022/06/06 05:10:27;;;;;;;23.52;12.40;;;13.60;99.90;;;;;;4807924;29;20069;-65
2022/06/06 05:13:12;;;;;;;20.80;11.57;;;13.60;99.90;;;;;;4788733;29;20097;-67
2022/06/06 05:15:55;;;;;;;17.30;10.63;;;13.60;99.90;;;;;;4804869;29;20057;-68
2022/06/06 05:18:55;;;;;;;19.23;10.45;;;13.60;99.90;;;;;;4798446;29;20085;-67
2022/06/06 05:21:37;;;;;;;18.83;10.77;;;13.60;99.90;;;;;;4796524;29;20066;-66
2022/06/06 05:24:14;;;;;;;14.95;9.80;;;13.60;99.90;;;;;;4799004;29;20613;-68
2022/06/06 05:26:55;;;;;;;17.75;10.20;;;13.60;99.90;;;;;;4803148;29;20080;-66
2022/06/06 05:29:52;;;;;;;17.50;9.95;;;13.50;99.90;;;;;;4785510;29;20047;-66
2022/06/06 05:32:45;;;;;;;15.50;9.23;;;13.50;99.90;;;;;;4804370;29;20054;-67
2022/06/06 05:35:27;;;;;;;18.23;10.30;;;13.60;99.90;;;;;;4807196;29;20058;-66
2022/06/06 05:37:59;;;;;;;18.05;9.57;;;13.60;99.90;;;;;;4798755;29;20050;-67
2022/06/06 05:40:41;;;;;;;18.13;10.65;;;13.60;99.90;;;;;;4789660;29;20051;-67
2022/06/06 05:43:26;;;;;;;18.55;11.20;;;13.60;99.90;;;;;;4788867;29;20469;-65
2022/06/06 05:45:51;;;;;;;20.42;10.70;;;13.60;99.90;;;;;;4805645;29;20094;-66
2022/06/06 05:48:17;;;;;;;20.73;11.02;;;13.60;99.90;;;;;;4803713;29;20047;-67
2022/06/06 05:50:59;;;;;;;15.35;9.23;;;13.60;99.90;;;;;;4780896;29;20481;-66
2022/06/06 05:53:43;;;;;;;19.52;10.65;;;13.60;99.90;;;;;;4777834;29;20090;-66
2022/06/06 05:56:39;;;;;;;18.55;10.55;;;13.70;99.90;;;;;;4792789;29;20050;-67
2022/06/06 05:59:13;;;;;;;15.85;9.25;;;13.70;99.90;;;;;;4744605;29;20059;-66
2022/06/06 06:02:00;;;;;;;19.15;11.13;;;13.70;99.90;;;;;;4805244;29;20130;-67
2022/06/06 06:04:37;;;;;;;18.77;11.05;;;13.70;99.90;;;;;;4802825;29;20043;-67
2022/06/06 06:07:17;;;;;;;23.67;11.32;;;13.70;99.90;;;;;;4802375;29;20097;-66
2022/06/06 06:10:11;;;;;;;18.80;10.48;;;13.70;99.90;;;;;;4798148;29;20107;-65
2022/06/06 06:13:07;;;;;;;18.27;10.73;;;13.70;99.90;;;;;;4761868;29;20062;-65
2022/06/06 06:15:37;;;;;;;19.13;11.70;;;13.70;99.90;;;;;;4788880;29;20102;-65
2022/06/06 06:18:29;;;;;;;19.25;11.32;;;13.70;99.90;;;;;;4787388;29;20049;-66
2022/06/06 06:21:29;;;;;;;20.48;10.15;;;13.70;99.90;;;;;;4774477;29;20039;-66
2022/06/06 06:24:42;;;;;;;17.58;10.30;;;13.70;99.90;;;;;;4791783;29;20066;-65
2022/06/06 06:27:10;;;;;;;16.55;9.85;;;13.80;99.90;;;;;;4761311;29;20431;-66
2022/06/06 06:29:39;;;;;;;16.67;9.18;;;13.80;99.90;;;;;;4787466;29;20535;-66
2022/06/06 06:32:22;;;;;;;16.85;10.27;;;13.80;99.90;;;;;;4804752;29;20576;-67
2022/06/06 06:35:25;;;;;;;18.15;10.20;;;13.80;99.90;;;;;;4803761;29;20055;-66
2022/06/06 06:38:22;;;;;;;16.10;9.45;;;14.00;99.90;;;;;;4785213;29;20050;-66
2022/06/06 06:41:23;;;;;;;15.73;8.35;;;14.40;99.90;;;;;;4787067;29;20547;-66
2022/06/06 06:44:10;;;;;;;17.15;9.00;;;14.60;99.90;;;;;;4796893;29;20043;-67
2022/06/06 06:46:54;;;;;;;15.88;8.57;;;14.90;99.90;;;;;;4783972;29;20132;-66
2022/06/06 06:49:35;;;;;;;16.45;8.95;;;15.00;99.90;;;;;;4772251;30;20058;-66
2022/06/06 06:52:06;;;;;;;13.35;8.20;;;15.00;99.90;;;;;;4793155;29;20051;-67
2022/06/06 06:54:56;;;;;;;20.52;8.55;;;15.00;99.90;;;;;;4798592;29;20107;-66
2022/06/06 06:57:35;;;;;;;15.20;8.95;;;15.00;99.90;;;;;;4801911;29;20055;-66
2022/06/06 07:00:18;;;;;;;15.63;8.52;;;15.20;99.90;;;;;;4784105;29;20117;-66
2022/06/06 07:09:01;;;;;;;10.43;7.28;;;15.50;99.90;;;;;;4798000;29;20084;-66
2022/06/06 07:12:10;;;;;;;10.32;6.32;;;15.50;99.90;;;;;;4805407;29;20050;-67
2022/06/06 07:15:01;;;;;;;11.60;7.25;;;15.50;99.90;;;;;;4800887;29;20051;-67
2022/06/06 07:17:32;;;;;;;11.70;7.47;;;15.50;99.90;;;;;;4804529;29;20043;-66
2022/06/06 07:20:23;;;;;;;13.40;7.60;;;15.50;99.90;;;;;;4804913;29;20061;-65
2022/06/06 07:22:59;;;;;;;13.40;8.98;;;15.50;99.90;;;;;;4775077;29;20047;-65
2022/06/06 07:25:27;;;;;;;13.82;8.30;;;15.50;99.90;;;;;;4789285;29;20126;-65
2022/06/06 07:27:55;;;;;;;11.52;8.05;;;15.60;99.90;;;;;;4805940;29;20051;-67
2022/06/06 07:30:22;;;;;;;12.18;7.93;;;15.70;99.90;;;;;;4774686;29;20442;-67
2022/06/06 07:33:02;;;;;;;13.00;8.50;;;15.50;99.90;;;;;;4789001;29;20047;-67
2022/06/06 07:35:44;;;;;;;16.40;9.63;;;15.60;99.90;;;;;;4805630;29;20046;-66
2022/06/06 07:38:35;;;;;;;13.93;8.13;;;15.70;99.90;;;;;;4805810;29;20051;-66
2022/06/06 07:41:00;;;;;;;13.43;8.65;;;15.70;99.90;;;;;;4805830;29;20051;-66
2022/06/06 07:43:40;;;;;;;15.57;9.50;;;15.60;99.90;;;;;;4787994;29;20083;-67
2022/06/06 07:46:47;;;;;;;16.63;9.70;;;15.60;99.90;;;;;;4803914;29;20687;-66
2022/06/06 07:49:28;;;;;;;15.07;9.57;;;15.50;99.90;;;;;;4805059;29;20058;-66
2022/06/06 07:52:07;;;;;;;15.20;9.40;;;15.60;99.90;;;;;;4786838;29;20425;-68
2022/06/06 07:55:08;;;;;;;17.45;9.88;;;15.80;99.90;;;;;;4789178;29;20054;-67
2022/06/06 07:57:45;;;;;;;18.13;10.70;;;16.20;99.90;;;;;;4795442;29;20054;-67
2022/06/06 08:00:18;;;;;;;19.20;11.23;;;16.20;99.90;;;;;;4788988;29;20112;-67
2022/06/06 08:02:57;;;;;;;14.63;10.63;;;16.30;99.90;;;;;;4803987;29;20645;-68
2022/06/06 08:05:42;;;;;;;12.73;9.63;;;16.60;99.90;;;;;;4804170;29;20046;-67
2022/06/06 08:08:23;;;;;;;15.50;8.07;;;16.80;99.90;;;;;;4803435;29;20067;-67
2022/06/06 08:10:52;;;;;;;7.68;6.10;;;17.10;99.90;;;;;;4805142;29;20431;-67
2022/06/06 08:13:45;;;;;;;12.20;7.07;;;17.30;99.90;;;;;;4788999;29;20438;-67
2022/06/06 08:16:44;;;;;;;11.90;6.60;;;17.20;99.90;;;;;;4773168;29;20055;-68
2022/06/06 08:19:34;;;;;;;10.75;7.00;;;17.00;99.90;;;;;;4789467;29;20047;-65
2022/06/06 08:22:01;;;;;;;9.93;6.45;;;16.70;99.90;;;;;;4808237;29;20103;-67
2022/06/06 08:24:41;;;;;;;9.25;6.40;;;16.60;99.90;;;;;;4807723;29;20481;-66
2022/06/06 08:27:10;;;;;;;12.20;7.05;;;16.50;99.90;;;;;;4792096;29;20054;-66
2022/06/06 08:29:39;;;;;;;12.23;6.70;;;16.40;99.90;;;;;;4806079;29;20058;-67
2022/06/06 08:32:05;;;;;;;9.93;6.18;;;16.30;99.90;;;;;;4806940;29;20385;-67
2022/06/06 08:34:33;;;;;;;8.75;5.70;;;16.10;99.90;;;;;;4808319;29;20055;-66
2022/06/06 08:37:24;;;;;;;9.10;4.97;;;16.20;99.90;;;;;;4808607;29;20050;-67
2022/06/06 08:40:18;;;;;;;6.15;4.85;;;16.30;99.90;;;;;;4792056;29;20476;-66
2022/06/06 08:43:00;;;;;;;5.75;4.18;;;16.60;99.90;;;;;;4808321;29;20126;-66
2022/06/06 08:45:47;;;;;;;4.95;3.60;;;16.80;99.90;;;;;;4808326;29;20094;-66
2022/06/06 08:48:38;;;;;;;8.25;3.30;;;17.00;99.90;;;;;;4805056;29;20062;-67
2022/06/06 08:51:10;;;;;;;5.95;3.00;;;17.00;99.90;;;;;;4805400;29;20078;-66
2022/06/06 08:53:43;;;;;;;6.25;2.67;;;17.00;99.90;;;;;;4789733;29;20065;-66
2022/06/06 08:56:41;;;;;;;4.30;2.38;;;17.10;99.90;;;;;;4804479;29;20054;-68
2022/06/06 08:59:33;;;;;;;3.33;2.00;;;17.20;99.90;;;;;;4805043;29;20062;-66
2022/06/06 09:02:24;;;;;;;;;;;17.20;99.90;;;;;;4807697;29;20062;-65
2022/06/06 09:05:08;;;;;;;3.33;1.98;;;17.30;99.90;;;;;;4780582;30;19984;-66
2022/06/06 09:07:51;;;;;;;3.80;2.13;;;17.50;99.90;;;;;;4789954;30;20059;-65
2022/06/06 09:10:28;;;;;;;3.00;1.90;;;17.80;99.90;;;;;;4806946;29;20086;-65
2022/06/06 09:13:22;;;;;;;4.72;2.08;;;18.20;99.90;;;;;;4807840;29;20059;-66
2022/06/06 09:16:22;;;;;;;3.47;1.85;;;18.30;99.90;;;;;;4790599;29;20051;-67
2022/06/06 09:19:10;;;;;;;2.55;2.08;;;18.30;99.90;;;;;;4791514;29;20046;-65
2022/06/06 09:21:44;;;;;;;3.38;1.98;;;18.40;99.90;;;;;;4804513;29;20405;-65
2022/06/06 09:24:49;;;;;;;3.95;2.13;;;18.50;99.90;;;;;;4783510;29;20057;-66
2022/06/06 09:27:32;;;;;;;4.13;2.05;;;18.60;99.90;;;;;;4788966;29;20070;-67
2022/06/06 09:30:41;;;;;;;2.40;1.75;;;18.80;99.90;;;;;;4803928;29;20121;-66
2022/06/06 09:33:49;;;;;;;3.78;1.90;;;19.00;99.90;;;;;;4787939;29;20042;-64
2022/06/06 09:36:43;;;;;;;3.83;2.30;;;19.00;99.90;;;;;;4790544;29;20046;-67
2022/06/06 09:39:47;;;;;;;4.95;2.28;;;18.90;99.90;;;;;;4791157;29;20500;-67
2022/06/06 09:42:12;;;;;;;4.38;2.53;;;18.70;99.90;;;;;;4767125;29;20385;-66
2022/06/06 09:45:17;;;;;;;4.50;2.60;;;18.40;99.90;;;;;;4790889;29;20050;-65
2022/06/06 10:01:29;;;;;;;3.10;2.83;;;18.40;99.90;;;;;;4804424;29;20042;-64
2022/06/06 10:04:23;;;;;;;10.40;3.08;;;18.00;99.90;;;;;;4804521;29;20469;-64
2022/06/06 10:07:17;;;;;;;4.57;2.50;;;17.90;99.90;;;;;;4803010;29;20058;-65
2022/06/06 10:10:00;;;;;;;2.45;2.20;;;17.90;99.90;;;;;;4804559;29;20054;-65
2022/06/06 10:12:48;;;;;;;3.05;2.30;;;17.70;99.90;;;;;;4804109;29;20058;-65
2022/06/06 10:15:50;;;;;;;3.35;2.10;;;17.50;99.90;;;;;;4786304;29;20065;-66
2022/06/06 10:18:44;;;;;;;3.55;1.83;;;18.20;99.90;;;;;;4777450;29;20449;-65
2022/06/06 10:22:14;;;;;;;2.58;1.65;;;17.20;99.90;;;;;;4804589;29;20103;-66
2022/06/06 10:24:49;;;;;;;2.60;2.10;;;17.40;99.90;;;;;;4759806;29;20082;-65
2022/06/06 10:27:34;;;;;;;4.60;2.33;;;17.90;99.90;;;;;;4802375;29;20050;-65
2022/06/06 10:30:11;;;;;;;3.92;2.75;;;17.90;99.90;;;;;;4805220;29;20058;-66
2022/06/06 10:32:40;;;;;;;2.78;2.20;;;19.30;99.90;;;;;;4774880;29;20057;-68
2022/06/06 10:36:00;;;;;;;5.75;2.45;;;17.80;99.90;;;;;;4802957;29;20103;-66
2022/06/06 10:39:00;;;;;;;4.53;2.10;;;19.10;99.90;;;;;;4805381;29;20129;-66
2022/06/06 10:41:46;;;;;;;3.00;2.33;;;18.40;99.90;;;;;;4805744;29;20050;-65
2022/06/06 10:44:30;;;;;;;3.60;2.10;;;17.80;99.90;;;;;;4803791;29;20914;-67
2022/06/06 10:46:58;;;;;;;4.30;2.20;;;17.60;99.90;;;;;;4804264;29;20043;-65
2022/06/06 10:49:39;;;;;;;5.25;2.30;;;17.50;99.90;;;;;;4805139;29;20082;-65
2022/06/06 10:52:36;;;;;;;2.30;2.10;;;17.30;99.90;;;;;;4806136;29;20046;-65
2022/06/06 10:55:32;;;;;;;3.72;2.30;;;17.10;99.90;;;;;;4789707;29;20108;-66
2022/06/06 10:58:29;;;;;;;3.60;2.38;;;16.80;99.90;;;;;;4788834;29;20042;-65
2022/06/06 11:01:28;;;;;;;2.20;2.00;;;16.70;99.90;;;;;;4804339;29;20065;-65
2022/06/06 11:04:18;;;;;;;5.18;2.40;;;16.40;99.90;;;;;;4806000;29;20116;-66
2022/06/06 11:07:09;;;;;;;3.75;2.30;;;16.40;99.90;;;;;;4806118;29;20086;-65
2022/06/06 11:09:53;;;;;;;2.53;2.10;;;16.20;99.90;;;;;;4789269;29;20071;-66
2022/06/06 11:12:48;;;;;;;4.25;2.10;;;16.10;99.90;;;;;;4773536;29;20047;-65
2022/06/06 11:15:14;;;;;;;5.05;1.63;;;15.90;99.90;;;;;;4801852;29;20553;-64
2022/06/06 11:18:06;;;;;;;1.75;1.52;;;15.80;99.90;;;;;;4803807;29;20059;-67
2022/06/06 11:20:46;;;;;;;4.88;1.70;;;15.60;99.90;;;;;;4805807;29;20051;-66
2022/06/06 11:23:26;;;;;;;3.63;1.60;;;15.50;99.90;;;;;;4805605;29;20103;-66
2022/06/06 11:26:15;;;;;;;2.65;1.92;;;15.60;99.90;;;;;;4787767;30;20066;-67
2022/06/06 11:29:01;;;;;;;2.72;1.77;;;15.50;99.90;;;;;;4787878;30;20091;-65
2022/06/06 11:31:49;;;;;;;1.95;1.70;;;15.50;99.90;;;;;;4801808;29;20362;-67
2022/06/06 11:34:28;;;;;;;2.22;2.03;;;15.50;99.90;;;;;;4802684;29;20051;-65
2022/06/06 11:37:29;;;;;;;2.28;1.90;;;15.60;99.90;;;;;;4804972;29;20054;-66
2022/06/06 11:40:04;;;;;;;1.80;1.70;;;15.90;99.90;;;;;;4789060;29;20055;-64
2022/06/06 11:42:59;;;;;;;3.13;1.67;;;16.50;99.90;;;;;;4805473;29;20500;-66
2022/06/06 11:45:37;;;;;;;2.35;1.75;;;16.90;99.90;;;;;;4805674;29;20130;-67
2022/06/06 11:48:34;;;;;;;2.20;2.00;;;17.40;99.90;;;;;;4788189;29;20063;-65
2022/06/06 11:51:21;;;;;;;1.80;1.70;;;17.70;99.90;;;;;;4805515;29;20059;-66
2022/06/06 11:54:04;;;;;;;5.18;2.13;;;17.90;99.90;;;;;;4789616;29;20050;-66
2022/06/06 11:56:50;;;;;;;2.20;1.83;;;18.10;99.90;;;;;;4791265;30;20051;-67
2022/06/06 11:59:57;;;;;;;1.73;1.50;;;18.30;99.90;;;;;;4807410;29;20062;-66
2022/06/06 12:02:48;;;;;;;2.85;1.75;;;18.40;99.90;;;;;;4804558;29;20054;-66
2022/06/06 12:05:52;;;;;;;8.73;1.50;;;18.60;99.90;;;;;;4802928;29;20051;-66
2022/06/06 12:08:50;;;;;;;1.70;1.40;;;18.70;99.90;;;;;;4795897;29;20397;-65
2022/06/06 12:11:47;;;;;;;1.77;1.40;;;18.80;99.90;;;;;;4776345;29;20051;-66
2022/06/06 12:14:33;;;;;;;1.50;1.20;;;18.70;99.90;;;;;;4809072;29;20051;-65
2022/06/06 12:17:33;;;;;;;1.45;1.15;;;18.70;99.90;;;;;;4791247;29;20047;-66
2022/06/06 12:20:55;;;;;;;2.63;1.05;;;18.80;99.90;;;;;;4792684;29;20051;-66
2022/06/06 12:23:56;;;;;;;0.98;0.85;;;18.90;99.90;;;;;;4752851;30;20055;-65
2022/06/06 12:26:51;;;;;;;3.17;0.68;;;19.00;99.90;;;;;;4717231;30;20049;-65
2022/06/06 12:29:25;;;;;;;1.08;0.50;;;19.20;99.90;;;;;;4808193;29;20142;-66
2022/06/06 12:32:34;;;;;;;1.23;0.70;;;19.20;99.90;;;;;;4791807;29;20061;-64
2022/06/06 12:35:11;;;;;;;1.63;1.17;;;19.20;99.90;;;;;;4807054;29;20063;-66
2022/06/06 12:38:04;;;;;;;1.15;0.80;;;19.10;99.90;;;;;;4792233;29;20061;-67
2022/06/06 12:40:52;;;;;;;1.23;0.70;;;18.90;99.90;;;;;;4808726;29;20090;-64
2022/06/06 12:43:32;;;;;;;1.92;0.80;;;18.80;99.90;;;;;;4808644;29;20059;-66
2022/06/06 12:46:10;;;;;;;1.02;0.93;;;18.80;99.90;;;;;;4806986;29;20106;-66
2022/06/06 12:49:15;;;;;;;1.88;0.90;;;18.70;99.90;;;;;;4804367;29;20199;-64
2022/06/06 12:51:55;;;;;;;0.82;0.82;;;18.50;99.90;;;;;;4801503;29;20058;-65
2022/06/06 12:57:51;;;;;;;3.05;1.27;;;18.50;99.90;;;;;;4808067;29;20055;-65
2022/06/06 13:01:37;;;;;;;1.85;1.13;;;18.60;99.90;;;;;;4791573;29;20058;-65
2022/06/06 13:03:40;;;;;;;2.72;1.30;;;18.60;99.90;;;;;;4806663;29;20051;-65
2022/06/06 13:06:32;;;;;;;2.28;1.17;;;18.80;99.90;;;;;;4807108;29;20077;-67
2022/06/06 13:09:11;;;;;;;2.08;1.20;;;18.80;99.90;;;;;;4791351;29;20653;-66
2022/06/06 13:11:45;;;;;;;1.42;1.25;;;18.80;99.90;;;;;;4807099;29;20122;-66
2022/06/06 13:14:32;;;;;;;2.33;1.20;;;18.70;99.90;;;;;;4806735;29;20062;-65
2022/06/06 13:17:19;;;;;;;2.35;1.00;;;18.60;99.90;;;;;;4804361;29;20101;-65
2022/06/06 13:20:29;;;;;;;1.15;1.05;;;18.70;99.90;;;;;;4805649;29;20111;-66
2022/06/06 13:23:39;;;;;;;3.65;1.15;;;18.70;99.90;;;;;;4805653;29;20047;-66
2022/06/06 13:26:29;;;;;;;1.73;0.77;;;18.70;99.90;;;;;;4805346;29;20058;-66
2022/06/06 13:28:55;;;;;;;3.97;1.10;;;18.60;99.90;;;;;;4804116;29;20043;-65
2022/06/06 13:31:27;;;;;;;1.67;1.20;;;18.40;99.90;;;;;;4805884;29;20051;-66
2022/06/06 13:34:06;;;;;;;1.20;1.00;;;18.30;99.90;;;;;;4804631;29;20062;-65
2022/06/06 13:36:41;;;;;;;2.45;1.10;;;18.10;99.90;;;;;;4807511;29;20069;-65
2022/06/06 13:39:43;;;;;;;2.20;1.40;;;18.10;99.90;;;;;;4775925;29;20047;-66
2022/06/06 13:42:28;;;;;;;1.58;1.05;;;17.90;99.90;;;;;;4805527;29;20070;-65
2022/06/06 13:45:44;;;;;;;2.38;1.10;;;17.80;99.90;;;;;;4796113;29;20053;-66
2022/06/06 13:48:28;;;;;;;4.38;1.77;;;17.70;99.90;;;;;;4773016;29;20112;-66
2022/06/06 13:51:31;;;;;;;2.25;1.40;;;17.40;99.90;;;;;;4805302;29;20135;-68
2022/06/06 13:53:59;;;;;;;2.70;1.70;;;17.20;99.90;;;;;;4791080;29;20103;-66
2022/06/06 13:56:40;;;;;;;3.45;1.90;;;17.00;99.90;;;;;;4801310;29;20047;-66
2022/06/06 13:59:32;;;;;;;1.98;1.88;;;16.70;99.90;;;;;;4801892;29;20081;-66
2022/06/06 14:02:23;;;;;;;2.28;1.88;;;16.40;99.90;;;;;;4759662;29;20393;-65
2022/06/06 14:05:25;;;;;;;3.40;2.30;;;16.20;99.90;;;;;;4789479;29;20066;-65
2022/06/06 14:08:07;;;;;;;2.53;2.33;;;15.90;99.90;;;;;;4805847;29;20054;-65
2022/06/06 14:10:59;;;;;;;3.22;2.60;;;15.70;99.90;;;;;;4806634;29;20051;-66
2022/06/06 14:13:31;;;;;;;6.10;2.53;;;15.50;99.90;;;;;;4800364;29;20055;-66
2022/06/06 14:15:58;;;;;;;4.30;2.72;;;15.50;99.90;;;;;;4775227;29;20162;-66
2022/06/06 14:18:35;;;;;;;5.00;3.30;;;15.50;99.90;;;;;;4785680;29;20073;-66
2022/06/06 14:21:03;;;;;;;3.83;3.15;;;15.50;99.90;;;;;;4806227;29;20051;-65
2022/06/06 14:23:38;;;;;;;3.85;3.55;;;15.40;99.90;;;;;;4790052;29;20450;-65